createdAt,value
2023-10-08T00:00:22.468Z,17.95
2023-10-08T00:00:54.535Z,17.93
2023-10-08T00:01:26.930Z,17.88
2023-10-08T00:01:58.905Z,17.95
2023-10-08T00:02:31.214Z,17.96
2023-10-08T00:03:06.379Z,17.96
2023-10-08T00:03:38.676Z,17.95
2023-10-08T00:04:11.188Z,17.94
2023-10-08T00:04:43.292Z,17.89
2023-10-08T00:05:15.549Z,17.97
2023-10-08T00:05:48.067Z,17.95
2023-10-08T00:06:21.997Z,17.98
2023-10-08T00:06:54.552Z,17.92
2023-10-08T00:07:26.526Z,17.95
2023-10-08T00:07:58.756Z,17.96
2023-10-08T00:08:30.788Z,17.97
2023-10-08T00:09:02.925Z,17.95
2023-10-08T00:09:35.283Z,17.94
2023-10-08T00:10:08.522Z,17.94
2023-10-08T00:10:47.154Z,17.92
2023-10-08T00:11:19.468Z,17.90
2023-10-08T00:11:51.603Z,17.87
2023-10-08T00:12:26.829Z,17.87
2023-10-08T00:12:59.607Z,17.84
2023-10-08T00:13:31.711Z,17.83
2023-10-08T00:14:05.639Z,17.84
2023-10-08T00:14:37.698Z,17.82
2023-10-08T00:15:09.903Z,17.86
2023-10-08T00:15:42.352Z,17.86
2023-10-08T00:16:15.288Z,17.86
2023-10-08T00:16:50.633Z,17.86
2023-10-08T00:17:22.753Z,17.90
2023-10-08T00:17:54.871Z,17.88
2023-10-08T00:18:27.038Z,17.83
2023-10-08T00:18:59.045Z,17.88
2023-10-08T00:19:31.105Z,17.84
2023-10-08T00:20:03.322Z,17.82
2023-10-08T00:20:36.674Z,17.79
2023-10-08T00:21:08.705Z,17.79
2023-10-08T00:21:40.734Z,17.79
2023-10-08T00:22:12.827Z,17.77
2023-10-08T00:22:44.855Z,17.73
2023-10-08T00:23:16.893Z,17.70
2023-10-08T00:23:49.021Z,17.67
2023-10-08T00:24:21.015Z,17.63
2023-10-08T00:24:53.089Z,17.54
2023-10-08T00:25:25.058Z,17.56
2023-10-08T00:26:00.299Z,17.55
2023-10-08T00:26:32.764Z,17.52
2023-10-08T00:27:04.839Z,17.43
2023-10-08T00:27:36.931Z,17.39
2023-10-08T00:28:09.612Z,17.43
2023-10-08T00:28:41.640Z,17.41
2023-10-08T00:29:15.484Z,17.38
2023-10-08T00:29:47.590Z,17.38
2023-10-08T00:30:19.677Z,17.31
2023-10-08T00:30:51.823Z,17.28
2023-10-08T00:31:24.121Z,17.28
2023-10-08T00:31:56.205Z,17.39
2023-10-08T00:32:28.355Z,17.39
2023-10-08T00:33:00.571Z,17.42
2023-10-08T00:33:33.036Z,17.43
2023-10-08T00:34:05.197Z,17.43
2023-10-08T00:34:37.227Z,17.43
2023-10-08T00:35:10.422Z,17.44
2023-10-08T00:35:43.328Z,17.45
2023-10-08T00:36:15.470Z,17.46
2023-10-08T00:36:49.030Z,17.45
2023-10-08T00:37:21.047Z,17.47
2023-10-08T00:37:53.095Z,17.48
2023-10-08T00:38:25.155Z,17.48
2023-10-08T00:38:57.162Z,17.49
2023-10-08T00:39:29.201Z,17.48
2023-10-08T00:40:01.283Z,17.49
2023-10-08T00:40:38.186Z,17.49
2023-10-08T00:41:13.669Z,17.51
2023-10-08T00:41:46.898Z,17.54
2023-10-08T00:42:19.039Z,17.50
2023-10-08T00:42:51.015Z,17.51
2023-10-08T00:43:32.363Z,17.55
2023-10-08T00:44:08.193Z,17.55
2023-10-08T00:44:41.769Z,17.56
2023-10-08T00:45:17.126Z,17.55
2023-10-08T00:45:49.178Z,17.62
2023-10-08T00:46:21.427Z,17.56
2023-10-08T00:46:53.675Z,17.60
2023-10-08T00:47:25.748Z,17.58
2023-10-08T00:47:58.032Z,17.58
2023-10-08T00:48:31.170Z,17.59
2023-10-08T00:49:04.105Z,17.61
2023-10-08T00:49:36.309Z,17.63
2023-10-08T00:50:08.866Z,17.69
2023-10-08T00:50:40.988Z,17.68
2023-10-08T00:51:14.049Z,17.72
2023-10-08T00:51:46.675Z,17.70
2023-10-08T00:52:18.895Z,17.70
2023-10-08T00:52:51.499Z,17.73
2023-10-08T00:53:24.198Z,17.72
2023-10-08T00:54:00.922Z,17.72
2023-10-08T00:54:33.297Z,17.80
2023-10-08T00:55:06.798Z,17.81
2023-10-08T00:55:39.595Z,17.83
2023-10-08T00:56:12.072Z,17.78
2023-10-08T00:56:47.639Z,17.88
2023-10-08T00:57:22.545Z,17.88
2023-10-08T00:57:59.478Z,17.90
2023-10-08T00:58:31.572Z,17.87
2023-10-08T00:59:03.812Z,17.89
2023-10-08T00:59:35.914Z,17.94
2023-10-08T01:00:10.971Z,17.93
2023-10-08T01:00:43.173Z,17.93
2023-10-08T01:01:16.159Z,17.92
2023-10-08T01:01:49.288Z,17.89
2023-10-08T01:02:21.528Z,17.87
2023-10-08T01:02:53.906Z,17.86
2023-10-08T01:03:26.690Z,17.81
2023-10-08T01:03:59.247Z,17.84
2023-10-08T01:04:32.000Z,17.84
2023-10-08T01:05:04.526Z,17.87
2023-10-08T01:05:36.650Z,17.90
2023-10-08T01:06:08.983Z,17.93
2023-10-08T01:06:41.151Z,17.92
2023-10-08T01:07:16.334Z,17.94
2023-10-08T01:07:50.905Z,17.94
2023-10-08T01:08:24.913Z,17.84
2023-10-08T01:08:57.051Z,17.87
2023-10-08T01:09:29.599Z,17.84
2023-10-08T01:10:01.620Z,17.79
2023-10-08T01:10:33.728Z,17.87
2023-10-08T01:11:26.544Z,17.86
2023-10-08T01:12:15.447Z,17.84
2023-10-08T01:12:48.084Z,17.92
2023-10-08T01:13:20.121Z,17.88
2023-10-08T01:13:52.149Z,17.86
2023-10-08T01:14:24.250Z,17.77
2023-10-08T01:14:56.498Z,17.83
2023-10-08T01:15:30.240Z,17.88
2023-10-08T01:16:02.421Z,17.87
2023-10-08T01:16:34.568Z,17.87
2023-10-08T01:17:06.685Z,17.91
2023-10-08T01:17:39.249Z,17.91
2023-10-08T01:18:11.552Z,17.87
2023-10-08T01:18:43.557Z,17.85
2023-10-08T01:19:19.564Z,17.85
2023-10-08T01:19:51.878Z,17.93
2023-10-08T01:20:23.986Z,17.89
2023-10-08T01:20:56.340Z,17.85
2023-10-08T01:21:29.884Z,17.88
2023-10-08T01:22:06.677Z,17.88
2023-10-08T01:22:38.767Z,17.84
2023-10-08T01:23:12.224Z,17.89
2023-10-08T01:23:45.897Z,17.90
2023-10-08T01:24:18.005Z,17.95
2023-10-08T01:24:50.596Z,17.97
2023-10-08T01:25:22.645Z,17.97
2023-10-08T01:25:54.671Z,17.99
2023-10-08T01:26:26.748Z,17.97
2023-10-08T01:26:58.881Z,18.00
2023-10-08T01:27:32.516Z,17.99
2023-10-08T01:28:05.464Z,18.02
2023-10-08T01:28:37.627Z,18.02
2023-10-08T01:29:13.249Z,18.02
2023-10-08T01:29:45.713Z,18.01
2023-10-08T01:30:17.838Z,18.04
2023-10-08T01:30:49.890Z,18.03
2023-10-08T01:31:22.014Z,18.02
2023-10-08T01:31:54.023Z,18.04
2023-10-08T01:32:26.077Z,18.03
2023-10-08T01:32:58.264Z,18.03
2023-10-08T01:33:30.609Z,18.03
2023-10-08T01:34:02.680Z,18.02
2023-10-08T01:34:34.719Z,18.00
2023-10-08T01:35:07.626Z,17.99
2023-10-08T01:35:40.864Z,17.98
2023-10-08T01:36:12.917Z,18.00
2023-10-08T01:36:44.993Z,18.01
2023-10-08T01:37:19.774Z,17.98
2023-10-08T01:37:52.048Z,17.94
2023-10-08T01:38:24.068Z,17.93
2023-10-08T01:38:56.367Z,17.92
2023-10-08T01:39:28.403Z,17.92
2023-10-08T01:40:00.592Z,17.89
2023-10-08T01:40:32.574Z,17.88
2023-10-08T01:41:05.164Z,17.88
2023-10-08T01:41:37.266Z,17.88
2023-10-08T01:42:09.843Z,17.88
2023-10-08T01:42:41.871Z,17.95
2023-10-08T01:43:13.885Z,17.96
2023-10-08T01:43:46.112Z,17.95
2023-10-08T01:44:18.252Z,17.93
2023-10-08T01:44:51.157Z,17.93
2023-10-08T01:45:23.424Z,17.90
2023-10-08T01:45:55.587Z,17.87
2023-10-08T01:46:27.709Z,17.86
2023-10-08T01:46:59.782Z,17.86
2023-10-08T01:47:31.959Z,17.82
2023-10-08T01:48:04.463Z,17.80
2023-10-08T01:48:36.590Z,17.81
2023-10-08T01:49:08.692Z,17.81
2023-10-08T01:49:40.807Z,17.75
2023-10-08T01:50:12.851Z,17.72
2023-10-08T01:50:44.930Z,17.76
2023-10-08T01:51:17.430Z,17.80
2023-10-08T01:51:49.443Z,17.84
2023-10-08T01:52:22.946Z,17.81
2023-10-08T01:52:55.045Z,17.90
2023-10-08T01:53:27.137Z,17.95
2023-10-08T01:53:59.729Z,17.95
2023-10-08T01:54:31.922Z,18.06
2023-10-08T01:55:04.984Z,18.06
2023-10-08T01:55:38.021Z,18.13
2023-10-08T01:56:10.137Z,18.17
2023-10-08T01:56:43.254Z,18.21
2023-10-08T01:57:15.938Z,18.14
2023-10-08T01:57:49.370Z,18.14
2023-10-08T01:58:24.379Z,18.13
2023-10-08T01:58:57.111Z,18.13
2023-10-08T01:59:32.866Z,18.16
2023-10-08T02:00:10.988Z,18.20
2023-10-08T02:00:44.312Z,18.21
2023-10-08T02:01:20.871Z,18.20
2023-10-08T02:01:52.991Z,18.20
2023-10-08T02:02:25.163Z,18.25
2023-10-08T02:02:57.441Z,18.22
2023-10-08T02:03:29.620Z,18.20
2023-10-08T02:04:02.692Z,18.21
2023-10-08T02:04:35.255Z,18.12
2023-10-08T02:05:07.897Z,18.19
2023-10-08T02:05:40.048Z,18.17
2023-10-08T02:06:12.033Z,18.15
2023-10-08T02:06:44.089Z,18.14
2023-10-08T02:07:16.098Z,18.14
2023-10-08T02:07:49.748Z,18.12
2023-10-08T02:08:21.854Z,18.10
2023-10-08T02:08:53.928Z,18.08
2023-10-08T02:09:26.057Z,18.10
2023-10-08T02:09:58.476Z,18.08
2023-10-08T02:10:30.484Z,18.16
2023-10-08T02:11:02.644Z,18.02
2023-10-08T02:11:46.957Z,18.16
2023-10-08T02:12:19.127Z,18.20
2023-10-08T02:12:51.216Z,18.26
2023-10-08T02:13:23.286Z,18.21
2023-10-08T02:13:55.307Z,18.26
2023-10-08T02:14:27.539Z,18.26
2023-10-08T02:14:59.573Z,18.23
2023-10-08T02:15:31.583Z,18.27
2023-10-08T02:16:04.029Z,18.27
2023-10-08T02:16:40.882Z,18.26
2023-10-08T02:17:13.424Z,18.31
2023-10-08T02:17:45.754Z,18.32
2023-10-08T02:18:17.884Z,18.36
2023-10-08T02:18:51.801Z,18.39
2023-10-08T02:19:25.358Z,18.38
2023-10-08T02:19:57.542Z,18.44
2023-10-08T02:20:29.577Z,18.40
2023-10-08T02:21:01.650Z,18.39
2023-10-08T02:21:33.757Z,18.34
2023-10-08T02:22:05.943Z,18.42
2023-10-08T02:22:38.020Z,18.38
2023-10-08T02:23:12.052Z,18.44
2023-10-08T02:23:44.132Z,18.49
2023-10-08T02:24:16.196Z,18.50
2023-10-08T02:24:48.311Z,18.46
2023-10-08T02:25:20.485Z,18.54
2023-10-08T02:25:52.526Z,18.57
2023-10-08T02:26:24.575Z,18.53
2023-10-08T02:26:56.796Z,18.53
2023-10-08T02:27:29.118Z,18.52
2023-10-08T02:28:02.557Z,18.49
2023-10-08T02:28:34.575Z,18.47
2023-10-08T02:29:07.310Z,18.48
2023-10-08T02:29:39.461Z,18.48
2023-10-08T02:30:12.460Z,18.42
2023-10-08T02:30:44.846Z,18.41
2023-10-08T02:31:16.955Z,18.37
2023-10-08T02:31:49.038Z,18.37
2023-10-08T02:32:21.128Z,18.29
2023-10-08T02:32:56.103Z,18.30
2023-10-08T02:33:28.642Z,18.31
2023-10-08T02:34:00.681Z,18.28
2023-10-08T02:34:32.740Z,18.28
2023-10-08T02:35:05.649Z,18.25
2023-10-08T02:35:37.748Z,18.25
2023-10-08T02:36:09.746Z,18.25
2023-10-08T02:36:44.012Z,18.24
2023-10-08T02:37:17.492Z,18.23
2023-10-08T02:37:49.565Z,18.22
2023-10-08T02:38:23.139Z,18.23
2023-10-08T02:38:55.178Z,18.18
2023-10-08T02:39:27.294Z,18.22
2023-10-08T02:39:59.544Z,18.20
2023-10-08T02:40:31.891Z,18.14
2023-10-08T02:41:04.030Z,18.17
2023-10-08T02:41:36.094Z,18.17
2023-10-08T02:42:08.283Z,18.18
2023-10-08T02:42:40.318Z,18.18
2023-10-08T02:43:12.407Z,18.17
2023-10-08T02:43:44.462Z,18.16
2023-10-08T02:44:17.581Z,18.20
2023-10-08T02:44:49.742Z,18.18
2023-10-08T02:45:21.837Z,18.18
2023-10-08T02:45:53.923Z,18.18
2023-10-08T02:46:26.237Z,18.26
2023-10-08T02:46:59.290Z,18.25
2023-10-08T02:47:31.635Z,18.26
2023-10-08T02:48:04.067Z,18.26
2023-10-08T02:48:36.365Z,18.26
2023-10-08T02:49:08.826Z,18.29
2023-10-08T02:49:41.353Z,18.37
2023-10-08T02:50:13.843Z,18.38
2023-10-08T02:50:46.033Z,18.36
2023-10-08T02:51:18.143Z,18.38
2023-10-08T02:51:52.705Z,18.34
2023-10-08T02:52:24.699Z,18.43
2023-10-08T02:52:56.765Z,18.44
2023-10-08T02:53:30.507Z,18.45
2023-10-08T02:54:02.545Z,18.41
2023-10-08T02:54:34.696Z,18.40
2023-10-08T02:55:09.650Z,18.40
2023-10-08T02:55:42.673Z,18.35
2023-10-08T02:56:14.824Z,18.33
2023-10-08T02:56:48.644Z,18.29
2023-10-08T02:57:20.692Z,18.27
2023-10-08T02:57:52.763Z,18.28
2023-10-08T02:58:24.808Z,18.26
2023-10-08T02:58:56.865Z,18.24
2023-10-08T02:59:33.690Z,18.19
2023-10-08T03:00:07.352Z,18.12
2023-10-08T03:00:39.469Z,18.15
2023-10-08T03:01:11.494Z,18.16
2023-10-08T03:01:43.578Z,18.17
2023-10-08T03:02:16.330Z,18.16
2023-10-08T03:02:48.535Z,18.12
2023-10-08T03:03:20.793Z,18.11
2023-10-08T03:03:55.377Z,18.09
2023-10-08T03:04:28.032Z,18.09
2023-10-08T03:05:00.072Z,18.06
2023-10-08T03:05:32.603Z,18.06
2023-10-08T03:06:04.949Z,18.03
2023-10-08T03:06:37.008Z,18.03
2023-10-08T03:07:09.053Z,18.06
2023-10-08T03:07:41.069Z,18.06
2023-10-08T03:08:13.542Z,18.04
2023-10-08T03:08:46.979Z,18.02
2023-10-08T03:09:19.725Z,18.00
2023-10-08T03:09:53.294Z,17.98
2023-10-08T03:10:34.653Z,17.97
2023-10-08T03:11:06.909Z,17.97
2023-10-08T03:11:41.839Z,17.98
2023-10-08T03:12:13.876Z,18.03
2023-10-08T03:12:46.776Z,18.03
2023-10-08T03:13:19.045Z,18.03
2023-10-08T03:13:51.218Z,18.00
2023-10-08T03:14:23.299Z,18.03
2023-10-08T03:14:58.597Z,18.03
2023-10-08T03:15:30.918Z,18.04
2023-10-08T03:16:03.454Z,18.03
2023-10-08T03:16:35.684Z,18.01
2023-10-08T03:17:07.666Z,18.01
2023-10-08T03:17:39.929Z,18.02
2023-10-08T03:18:12.232Z,17.98
2023-10-08T03:18:44.263Z,18.06
2023-10-08T03:19:16.512Z,18.09
2023-10-08T03:19:48.651Z,18.14
2023-10-08T03:20:21.300Z,18.16
2023-10-08T03:20:53.534Z,18.13
2023-10-08T03:21:25.664Z,18.14
2023-10-08T03:21:57.748Z,18.15
2023-10-08T03:22:29.814Z,18.25
2023-10-08T03:23:01.912Z,18.23
2023-10-08T03:23:34.141Z,18.24
2023-10-08T03:24:08.880Z,18.31
2023-10-08T03:24:41.034Z,18.34
2023-10-08T03:25:14.163Z,18.37
2023-10-08T03:25:46.157Z,18.52
2023-10-08T03:26:22.610Z,18.61
2023-10-08T03:26:54.730Z,18.64
2023-10-08T03:27:26.853Z,18.73
2023-10-08T03:27:58.934Z,18.76
2023-10-08T03:28:31.866Z,18.86
2023-10-08T03:29:05.706Z,18.85
2023-10-08T03:29:38.120Z,18.78
2023-10-08T03:30:10.779Z,18.83
2023-10-08T03:30:42.834Z,18.92
2023-10-08T03:31:15.621Z,18.98
2023-10-08T03:31:47.915Z,19.01
2023-10-08T03:32:20.398Z,19.01
2023-10-08T03:32:52.646Z,18.99
2023-10-08T03:33:25.123Z,19.10
2023-10-08T03:33:57.506Z,19.16
2023-10-08T03:34:29.578Z,19.12
2023-10-08T03:35:01.860Z,19.06
2023-10-08T03:35:35.900Z,19.07
2023-10-08T03:36:09.025Z,19.09
2023-10-08T03:36:41.406Z,19.07
2023-10-08T03:37:15.351Z,19.05
2023-10-08T03:37:47.338Z,19.05
2023-10-08T03:38:20.337Z,19.15
2023-10-08T03:38:53.192Z,19.14
2023-10-08T03:39:27.058Z,19.15
2023-10-08T03:39:59.149Z,19.14
2023-10-08T03:40:31.597Z,19.23
2023-10-08T03:41:03.826Z,19.23
2023-10-08T03:41:36.250Z,19.23
2023-10-08T03:42:08.306Z,19.26
2023-10-08T03:42:40.387Z,19.27
2023-10-08T03:43:12.411Z,19.26
2023-10-08T03:43:44.553Z,19.29
2023-10-08T03:44:16.655Z,19.27
2023-10-08T03:44:48.668Z,19.26
2023-10-08T03:45:20.858Z,19.27
2023-10-08T03:45:52.911Z,19.36
2023-10-08T03:46:25.028Z,19.35
2023-10-08T03:46:57.092Z,19.39
2023-10-08T03:47:29.569Z,19.38
2023-10-08T03:48:01.756Z,19.38
2023-10-08T03:48:34.127Z,19.34
2023-10-08T03:49:06.511Z,19.41
2023-10-08T03:49:43.567Z,19.47
2023-10-08T03:50:15.883Z,19.42
2023-10-08T03:50:47.995Z,19.42
2023-10-08T03:51:20.055Z,19.40
2023-10-08T03:51:53.516Z,19.45
2023-10-08T03:52:28.743Z,19.47
2023-10-08T03:53:01.130Z,19.44
2023-10-08T03:53:33.250Z,19.45
2023-10-08T03:54:06.690Z,19.44
2023-10-08T03:54:40.102Z,19.45
2023-10-08T03:55:12.762Z,19.45
2023-10-08T03:55:44.867Z,19.47
2023-10-08T03:56:16.929Z,19.48
2023-10-08T03:56:48.974Z,19.52
2023-10-08T03:57:21.052Z,19.58
2023-10-08T03:57:53.159Z,19.56
2023-10-08T03:58:25.228Z,19.60
2023-10-08T03:58:57.569Z,19.61
2023-10-08T03:59:29.658Z,19.64
2023-10-08T04:00:01.831Z,19.61
2023-10-08T04:00:33.890Z,19.59
2023-10-08T04:01:07.581Z,19.58
2023-10-08T04:01:40.101Z,19.56
2023-10-08T04:02:12.664Z,19.59
2023-10-08T04:02:44.830Z,19.57
2023-10-08T04:03:17.110Z,19.62
2023-10-08T04:03:49.322Z,19.63
2023-10-08T04:04:21.463Z,19.67
2023-10-08T04:04:53.589Z,19.67
2023-10-08T04:05:26.355Z,19.65
2023-10-08T04:05:58.453Z,19.65
2023-10-08T04:06:31.124Z,19.65
2023-10-08T04:07:03.200Z,19.66
2023-10-08T04:07:35.332Z,19.65
2023-10-08T04:08:07.427Z,19.62
2023-10-08T04:08:39.651Z,19.61
2023-10-08T04:09:11.878Z,19.62
2023-10-08T04:09:45.632Z,19.62
2023-10-08T04:10:17.708Z,19.61
2023-10-08T04:10:49.807Z,19.61
2023-10-08T04:11:22.191Z,19.58
2023-10-08T04:11:56.504Z,19.61
2023-10-08T04:12:40.528Z,19.61
2023-10-08T04:13:12.750Z,19.59
2023-10-08T04:13:44.837Z,19.64
2023-10-08T04:14:18.531Z,19.71
2023-10-08T04:14:50.638Z,19.71
2023-10-08T04:15:25.805Z,19.72
2023-10-08T04:15:58.511Z,19.69
2023-10-08T04:16:31.232Z,19.72
2023-10-08T04:17:03.694Z,19.68
2023-10-08T04:17:37.003Z,19.72
2023-10-08T04:18:09.865Z,19.67
2023-10-08T04:18:42.059Z,19.64
2023-10-08T04:19:14.688Z,19.67
2023-10-08T04:19:46.885Z,19.66
2023-10-08T04:20:18.979Z,19.65
2023-10-08T04:20:51.152Z,19.63
2023-10-08T04:21:23.642Z,19.61
2023-10-08T04:21:56.318Z,19.65
2023-10-08T04:22:31.052Z,19.66
2023-10-08T04:23:04.991Z,19.60
2023-10-08T04:23:37.167Z,19.65
2023-10-08T04:24:09.651Z,19.66
2023-10-08T04:24:45.891Z,19.65
2023-10-08T04:25:18.235Z,19.61
2023-10-08T04:25:50.300Z,19.69
2023-10-08T04:26:22.335Z,19.71
2023-10-08T04:26:54.619Z,19.72
2023-10-08T04:27:26.645Z,19.72
2023-10-08T04:28:00.218Z,19.72
2023-10-08T04:28:32.858Z,19.72
2023-10-08T04:29:05.051Z,19.68
2023-10-08T04:29:37.325Z,19.69
2023-10-08T04:30:10.541Z,19.71
2023-10-08T04:30:42.714Z,19.71
2023-10-08T04:31:14.798Z,19.69
2023-10-08T04:31:47.532Z,19.71
2023-10-08T04:32:19.711Z,19.71
2023-10-08T04:32:51.842Z,19.69
2023-10-08T04:33:25.634Z,19.68
2023-10-08T04:33:57.950Z,19.67
2023-10-08T04:34:30.275Z,19.67
2023-10-08T04:35:02.293Z,19.67
2023-10-08T04:35:34.958Z,19.64
2023-10-08T04:36:06.994Z,19.60
2023-10-08T04:36:39.105Z,19.67
2023-10-08T04:37:11.980Z,19.62
2023-10-08T04:37:43.973Z,19.67
2023-10-08T04:38:16.835Z,19.66
2023-10-08T04:38:49.307Z,19.64
2023-10-08T04:39:21.885Z,19.64
2023-10-08T04:39:55.291Z,19.63
2023-10-08T04:40:27.329Z,19.64
2023-10-08T04:40:59.689Z,19.62
2023-10-08T04:41:31.772Z,19.60
2023-10-08T04:42:04.208Z,19.58
2023-10-08T04:42:36.269Z,19.58
2023-10-08T04:43:08.285Z,19.57
2023-10-08T04:43:40.327Z,19.56
2023-10-08T04:44:12.846Z,19.56
2023-10-08T04:44:44.996Z,19.54
2023-10-08T04:45:17.084Z,19.50
2023-10-08T04:45:49.150Z,19.51
2023-10-08T04:46:21.725Z,19.50
2023-10-08T04:46:53.858Z,19.41
2023-10-08T04:47:26.149Z,19.49
2023-10-08T04:47:58.254Z,19.47
2023-10-08T04:48:30.475Z,19.48
2023-10-08T04:49:02.610Z,19.54
2023-10-08T04:49:34.760Z,19.55
2023-10-08T04:50:07.494Z,19.51
2023-10-08T04:50:39.672Z,19.58
2023-10-08T04:51:12.631Z,19.60
2023-10-08T04:51:44.855Z,19.59
2023-10-08T04:52:16.973Z,19.59
2023-10-08T04:52:49.009Z,19.59
2023-10-08T04:53:20.978Z,19.58
2023-10-08T04:53:53.438Z,19.53
2023-10-08T04:54:26.491Z,19.63
2023-10-08T04:55:00.720Z,19.66
2023-10-08T04:55:32.778Z,19.67
2023-10-08T04:56:07.321Z,19.66
2023-10-08T04:56:39.803Z,19.65
2023-10-08T04:57:11.855Z,19.64
2023-10-08T04:57:44.089Z,19.67
2023-10-08T04:58:16.174Z,19.68
2023-10-08T04:58:49.082Z,19.69
2023-10-08T04:59:21.119Z,19.67
2023-10-08T04:59:53.407Z,19.65
2023-10-08T05:00:25.470Z,19.63
2023-10-08T05:01:00.992Z,19.64
2023-10-08T05:01:33.238Z,19.62
2023-10-08T05:02:06.651Z,19.62
2023-10-08T05:02:38.727Z,19.60
2023-10-08T05:03:10.892Z,19.60
2023-10-08T05:03:42.994Z,19.58
2023-10-08T05:04:19.241Z,19.61
2023-10-08T05:04:52.298Z,19.58
2023-10-08T05:05:24.697Z,19.60
2023-10-08T05:05:56.900Z,19.58
2023-10-08T05:06:31.359Z,19.58
2023-10-08T05:07:03.394Z,19.56
2023-10-08T05:07:35.407Z,19.53
2023-10-08T05:08:07.476Z,19.51
2023-10-08T05:08:39.546Z,19.52
2023-10-08T05:09:13.028Z,19.52
2023-10-08T05:09:46.499Z,19.54
2023-10-08T05:10:20.083Z,19.53
2023-10-08T05:10:52.404Z,19.50
2023-10-08T05:11:24.495Z,19.49
2023-10-08T05:11:57.093Z,19.47
2023-10-08T05:12:29.153Z,19.48
2023-10-08T05:13:01.178Z,19.51
2023-10-08T05:13:33.189Z,19.49
2023-10-08T05:14:05.376Z,19.49
2023-10-08T05:14:37.502Z,19.48
2023-10-08T05:15:10.364Z,19.49
2023-10-08T05:15:42.921Z,19.49
2023-10-08T05:16:15.143Z,19.49
2023-10-08T05:16:47.219Z,19.51
2023-10-08T05:17:19.655Z,19.52
2023-10-08T05:17:52.046Z,19.54
2023-10-08T05:18:24.824Z,19.52
2023-10-08T05:18:57.129Z,19.59
2023-10-08T05:19:29.212Z,19.56
2023-10-08T05:20:01.208Z,19.53
2023-10-08T05:20:33.286Z,19.57
2023-10-08T05:21:05.326Z,19.59
2023-10-08T05:21:37.356Z,19.60
2023-10-08T05:22:10.225Z,19.58
2023-10-08T05:22:42.313Z,19.58
2023-10-08T05:23:15.240Z,19.61
2023-10-08T05:23:47.304Z,19.59
2023-10-08T05:24:20.609Z,19.57
2023-10-08T05:24:52.965Z,19.62
2023-10-08T05:25:26.450Z,19.57
2023-10-08T05:25:59.391Z,19.63
2023-10-08T05:26:31.520Z,19.60
2023-10-08T05:27:03.615Z,19.61
2023-10-08T05:27:37.333Z,19.65
2023-10-08T05:28:09.417Z,19.67
2023-10-08T05:28:41.480Z,19.68
2023-10-08T05:29:13.808Z,19.66
2023-10-08T05:29:46.027Z,19.75
2023-10-08T05:30:20.166Z,19.80
2023-10-08T05:30:52.632Z,19.82
2023-10-08T05:31:29.017Z,19.80
2023-10-08T05:32:01.073Z,19.80
2023-10-08T05:32:33.363Z,19.82
2023-10-08T05:33:06.928Z,19.81
2023-10-08T05:33:39.141Z,19.83
2023-10-08T05:34:11.192Z,19.82
2023-10-08T05:34:43.177Z,19.81
2023-10-08T05:35:15.321Z,19.80
2023-10-08T05:35:47.673Z,19.72
2023-10-08T05:36:19.798Z,19.77
2023-10-08T05:36:51.957Z,19.76
2023-10-08T05:37:24.151Z,19.76
2023-10-08T05:37:59.465Z,19.79
2023-10-08T05:38:34.069Z,19.81
2023-10-08T05:39:06.173Z,19.80
2023-10-08T05:39:38.759Z,19.79
2023-10-08T05:40:11.521Z,19.80
2023-10-08T05:40:45.491Z,19.78
2023-10-08T05:41:17.559Z,19.79
2023-10-08T05:41:50.212Z,19.80
2023-10-08T05:42:22.282Z,19.80
2023-10-08T05:42:54.427Z,19.77
2023-10-08T05:43:28.720Z,19.79
2023-10-08T05:44:02.868Z,19.73
2023-10-08T05:44:35.012Z,19.84
2023-10-08T05:45:07.788Z,19.81
2023-10-08T05:45:39.830Z,19.80
2023-10-08T05:46:14.844Z,19.83
2023-10-08T05:46:47.851Z,19.85
2023-10-08T05:47:20.198Z,19.85
2023-10-08T05:47:52.271Z,19.85
2023-10-08T05:48:24.503Z,19.86
2023-10-08T05:48:59.441Z,19.84
2023-10-08T05:49:31.516Z,19.84
2023-10-08T05:50:05.922Z,19.82
2023-10-08T05:50:37.995Z,19.86
2023-10-08T05:51:10.160Z,19.86
2023-10-08T05:51:43.594Z,19.88
2023-10-08T05:52:15.586Z,19.87
2023-10-08T05:52:49.150Z,19.84
2023-10-08T05:53:21.209Z,19.84
2023-10-08T05:53:53.336Z,19.78
2023-10-08T05:54:26.449Z,19.77
2023-10-08T05:55:00.017Z,19.77
2023-10-08T05:55:33.079Z,19.75
2023-10-08T05:56:10.110Z,19.78
2023-10-08T05:56:42.289Z,19.78
2023-10-08T05:57:14.429Z,19.76
2023-10-08T05:57:46.406Z,19.74
2023-10-08T05:58:18.614Z,19.74
2023-10-08T05:58:50.605Z,19.76
2023-10-08T05:59:22.642Z,19.74
2023-10-08T05:59:54.821Z,19.74
2023-10-08T06:00:27.289Z,19.74
2023-10-08T06:00:59.360Z,19.71
2023-10-08T06:01:31.395Z,19.69
2023-10-08T06:02:03.444Z,19.69
2023-10-08T06:02:36.245Z,19.72
2023-10-08T06:03:08.548Z,19.72
2023-10-08T06:03:40.879Z,19.69
2023-10-08T06:04:13.304Z,19.69
2023-10-08T06:04:45.391Z,19.65
2023-10-08T06:05:17.415Z,19.64
2023-10-08T06:05:49.463Z,19.67
2023-10-08T06:06:21.515Z,19.68
2023-10-08T06:06:54.316Z,19.65
2023-10-08T06:07:27.349Z,19.64
2023-10-08T06:07:59.573Z,19.65
2023-10-08T06:08:31.786Z,19.62
2023-10-08T06:09:05.615Z,19.61
2023-10-08T06:09:37.817Z,19.61
2023-10-08T06:10:11.098Z,19.62
2023-10-08T06:10:43.127Z,19.60
2023-10-08T06:11:17.223Z,19.59
2023-10-08T06:11:50.432Z,19.56
2023-10-08T06:12:22.544Z,19.58
2023-10-08T06:12:54.620Z,19.58
2023-10-08T06:13:26.674Z,19.56
2023-10-08T06:13:58.730Z,19.55
2023-10-08T06:14:30.827Z,19.52
2023-10-08T06:15:03.104Z,19.54
2023-10-08T06:15:37.334Z,19.50
2023-10-08T06:16:09.764Z,19.50
2023-10-08T06:16:43.898Z,19.48
2023-10-08T06:17:16.534Z,19.50
2023-10-08T06:17:52.361Z,19.48
2023-10-08T06:18:27.457Z,19.41
2023-10-08T06:18:59.691Z,19.45
2023-10-08T06:19:36.690Z,19.39
2023-10-08T06:20:09.778Z,19.42
2023-10-08T06:20:42.492Z,19.39
2023-10-08T06:21:14.504Z,19.41
2023-10-08T06:21:46.524Z,19.44
2023-10-08T06:22:18.583Z,19.40
2023-10-08T06:22:50.559Z,19.39
2023-10-08T06:23:23.914Z,19.34
2023-10-08T06:23:56.146Z,19.35
2023-10-08T06:24:28.243Z,19.32
2023-10-08T06:25:03.965Z,19.32
2023-10-08T06:25:36.052Z,19.31
2023-10-08T06:26:08.197Z,19.32
2023-10-08T06:26:41.868Z,19.31
2023-10-08T06:27:13.962Z,19.31
2023-10-08T06:27:46.060Z,19.30
2023-10-08T06:28:19.236Z,19.31
2023-10-08T06:28:51.784Z,19.32
2023-10-08T06:29:23.907Z,19.31
2023-10-08T06:29:56.015Z,19.29
2023-10-08T06:30:28.146Z,19.28
2023-10-08T06:31:00.179Z,19.33
2023-10-08T06:31:32.288Z,19.32
2023-10-08T06:32:04.646Z,19.37
2023-10-08T06:32:36.780Z,19.34
2023-10-08T06:33:10.781Z,19.35
2023-10-08T06:33:44.651Z,19.38
2023-10-08T06:34:16.741Z,19.35
2023-10-08T06:34:49.011Z,19.37
2023-10-08T06:35:21.281Z,19.35
2023-10-08T06:35:53.622Z,19.36
2023-10-08T06:36:25.955Z,19.35
2023-10-08T06:36:59.434Z,19.30
2023-10-08T06:37:31.521Z,19.33
2023-10-08T06:38:04.273Z,19.30
2023-10-08T06:38:36.762Z,19.27
2023-10-08T06:39:09.197Z,19.23
2023-10-08T06:39:41.276Z,19.22
2023-10-08T06:40:13.940Z,19.22
2023-10-08T06:40:45.979Z,19.19
2023-10-08T06:41:33.069Z,19.19
2023-10-08T06:42:11.923Z,19.17
2023-10-08T06:42:44.134Z,19.18
2023-10-08T06:43:16.160Z,19.16
2023-10-08T06:43:51.212Z,19.14
2023-10-08T06:44:23.263Z,19.13
2023-10-08T06:44:55.330Z,19.12
2023-10-08T06:45:27.429Z,19.11
2023-10-08T06:45:59.920Z,19.08
2023-10-08T06:46:32.122Z,19.06
2023-10-08T06:47:04.839Z,19.01
2023-10-08T06:47:36.981Z,19.02
2023-10-08T06:48:09.261Z,19.01
2023-10-08T06:48:42.401Z,18.97
2023-10-08T06:49:15.312Z,18.99
2023-10-08T06:49:48.095Z,18.98
2023-10-08T06:50:21.324Z,18.97
2023-10-08T06:50:54.533Z,18.97
2023-10-08T06:51:26.665Z,18.95
2023-10-08T06:52:00.604Z,18.96
2023-10-08T06:52:42.088Z,18.97
2023-10-08T06:53:14.763Z,18.86
2023-10-08T06:53:54.013Z,18.95
2023-10-08T06:54:30.513Z,18.96
2023-10-08T06:55:07.946Z,18.92
2023-10-08T06:55:47.651Z,18.95
2023-10-08T06:56:19.980Z,18.95
2023-10-08T06:56:52.081Z,18.93
2023-10-08T06:57:25.685Z,18.95
2023-10-08T06:57:58.098Z,19.01
2023-10-08T06:58:30.160Z,19.09
2023-10-08T06:59:02.184Z,19.19
2023-10-08T06:59:34.166Z,19.22
2023-10-08T07:00:07.774Z,19.21
2023-10-08T07:00:39.923Z,19.22
2023-10-08T07:01:11.938Z,19.22
2023-10-08T07:01:44.505Z,19.19
2023-10-08T07:02:16.557Z,19.17
2023-10-08T07:02:48.864Z,19.16